Time;durP1;ratioP1;P1;durP2;ratioP2;P2;SDS_P1;SDS_P2;PMS_P1;PMS_P2;Temp;Humidity;BMP_temperature;BMP_pressure;BME280_temperature;BME280_humidity;BME280_pressure;Samples;Min_cycle;Max_cycle;Signal;HPM_P1;HPM_P2
2022/07/04 00:00:14;;;;;;;7.77;2.53;;;21.70;80.40;;;;;;4993433;28;20793;-68
2022/07/04 00:02:43;;;;;;;5.70;2.17;;;21.70;79.30;;;;;;4993198;28;20444;-67
2022/07/04 00:05:13;;;;;;;3.07;2.17;;;21.70;77.80;;;;;;4993725;28;20443;-67
2022/07/04 00:07:41;;;;;;;6.23;2.03;;;21.80;77.50;;;;;;4992765;28;20452;-73
2022/07/04 00:10:10;;;;;;;3.47;2.17;;;21.90;76.60;;;;;;4993144;28;21006;-67
2022/07/04 00:12:39;;;;;;;9.00;3.03;;;22.00;76.40;;;;;;4992663;28;20440;-67
2022/07/04 00:15:15;;;;;;;12.10;2.47;;;22.00;76.40;;;;;;4993458;28;20953;-67
2022/07/04 00:17:45;;;;;;;4.20;2.53;;;22.10;77.20;;;;;;4992961;28;20810;-67
2022/07/04 00:20:13;;;;;;;6.27;2.23;;;22.10;77.10;;;;;;4992576;28;20444;-67
2022/07/04 00:22:40;;;;;;;5.77;1.97;;;22.10;77.70;;;;;;4992795;28;20440;-67
2022/07/04 00:25:08;;;;;;;4.00;2.40;;;22.20;76.70;;;;;;4993295;28;20455;-67
2022/07/04 00:27:36;;;;;;;4.43;2.27;;;22.20;76.40;;;;;;4992646;28;20965;-68
2022/07/04 00:30:06;;;;;;;3.90;2.47;;;22.30;76.00;;;;;;4992440;28;20488;-67
2022/07/04 00:32:35;;;;;;;4.17;2.47;;;22.20;76.30;;;;;;4992506;28;21005;-67
2022/07/04 00:35:04;;;;;;;3.00;2.30;;;22.30;76.60;;;;;;4992986;28;20520;-67
2022/07/04 00:37:33;;;;;;;3.60;2.40;;;22.30;76.30;;;;;;4992064;28;20449;-67
2022/07/04 00:40:02;;;;;;;3.10;2.20;;;22.30;77.20;;;;;;4992424;28;20443;-67
2022/07/04 00:42:29;;;;;;;4.83;2.00;;;22.30;75.40;;;;;;4992679;28;20441;-67
2022/07/04 00:44:56;;;;;;;4.23;2.03;;;22.30;75.50;;;;;;4992909;28;20436;-67
2022/07/04 00:47:23;;;;;;;3.27;1.73;;;22.30;75.20;;;;;;4992304;28;20467;-67
2022/07/04 00:49:52;;;;;;;4.10;2.17;;;22.30;75.40;;;;;;4992415;28;20506;-67
2022/07/04 00:52:21;;;;;;;3.67;1.77;;;22.20;75.50;;;;;;4992033;28;20455;-67
2022/07/04 00:54:51;;;;;;;7.00;3.23;;;22.20;75.60;;;;;;4992807;28;20502;-67
2022/07/04 00:57:18;;;;;;;3.97;2.90;;;22.10;75.90;;;;;;4992226;28;20486;-67
2022/07/04 00:59:46;;;;;;;4.30;2.10;;;22.10;76.60;;;;;;4992529;28;20440;-67
2022/07/04 01:02:18;;;;;;;3.23;2.27;;;22.10;77.80;;;;;;4992176;28;20444;-67
2022/07/04 01:04:45;;;;;;;2.37;1.50;;;22.10;78.90;;;;;;4992577;28;20512;-67
2022/07/04 01:07:14;;;;;;;3.27;1.70;;;22.10;78.80;;;;;;4992541;28;20931;-67
2022/07/04 01:09:44;;;;;;;4.20;2.00;;;22.00;77.90;;;;;;4992442;28;20539;-71
2022/07/04 01:12:24;;;;;;;3.70;1.60;;;22.00;77.20;;;;;;4992153;28;20432;-67
2022/07/04 01:14:53;;;;;;;4.83;1.57;;;21.90;75.90;;;;;;4992628;28;20447;-67
2022/07/04 01:17:21;;;;;;;2.77;1.40;;;21.80;76.40;;;;;;4992088;28;20451;-67
2022/07/04 01:19:48;;;;;;;8.03;1.90;;;21.70;76.70;;;;;;4992071;28;20462;-67
2022/07/04 01:22:18;;;;;;;3.80;1.60;;;21.60;77.10;;;;;;4992089;28;20451;-67
2022/07/04 01:24:50;;;;;;;2.73;1.40;;;21.60;76.80;;;;;;4992416;28;20448;-67
2022/07/04 01:27:18;;;;;;;4.60;1.50;;;21.60;77.10;;;;;;4992266;28;20503;-67
2022/07/04 01:29:50;;;;;;;3.30;2.03;;;21.50;77.10;;;;;;4991470;28;20486;-67
2022/07/04 01:32:17;;;;;;;3.00;1.50;;;21.50;76.70;;;;;;4991897;28;20440;-68
2022/07/04 01:34:47;;;;;;;5.90;1.37;;;21.40;77.20;;;;;;4992261;28;20509;-67
2022/07/04 01:37:15;;;;;;;2.50;1.40;;;21.30;77.10;;;;;;4991454;28;20450;-67
2022/07/04 01:39:44;;;;;;;3.57;1.50;;;21.30;76.60;;;;;;4992025;28;20493;-68
2022/07/04 01:42:14;;;;;;;2.10;1.20;;;21.20;76.30;;;;;;4991870;28;20804;-66
2022/07/04 01:44:44;;;;;;;2.73;1.60;;;21.10;76.60;;;;;;4991642;28;20447;-67
2022/07/04 01:47:11;;;;;;;2.40;1.50;;;21.00;76.30;;;;;;4991678;28;20436;-71
2022/07/04 01:49:39;;;;;;;2.07;1.07;;;21.00;76.00;;;;;;4994895;28;20537;-67
2022/07/04 01:52:06;;;;;;;2.47;1.17;;;21.00;76.70;;;;;;4994779;28;21178;-67
2022/07/04 01:54:35;;;;;;;2.60;1.40;;;21.00;76.80;;;;;;4995034;28;20444;-67
2022/07/04 01:57:05;;;;;;;5.07;1.30;;;20.90;77.20;;;;;;4995540;28;20483;-67
2022/07/04 02:02:23;;;;;;;2.53;1.27;;;20.70;78.10;;;;;;4996061;28;20431;-67
2022/07/04 02:04:50;;;;;;;2.60;1.50;;;20.70;79.00;;;;;;4995202;28;20452;-67
2022/07/04 02:07:20;;;;;;;3.40;1.33;;;20.70;79.30;;;;;;4995618;28;20443;-67
2022/07/04 02:09:49;;;;;;;2.33;1.37;;;20.70;79.30;;;;;;4994569;28;20553;-66
2022/07/04 02:15:10;;;;;;;2.73;1.60;;;20.60;80.90;;;;;;4995906;28;20438;-66
2022/07/04 02:17:37;;;;;;;2.40;1.20;;;20.70;80.70;;;;;;4995212;28;20670;-67
2022/07/04 02:20:06;;;;;;;5.00;2.17;;;20.70;80.20;;;;;;4994985;28;20435;-67
2022/07/04 02:22:35;;;;;;;4.00;2.17;;;20.60;80.00;;;;;;4994944;28;20451;-67
2022/07/04 02:25:05;;;;;;;3.27;2.13;;;20.70;80.10;;;;;;4995289;28;20487;-66
2022/07/04 02:27:32;;;;;;;2.30;1.40;;;20.70;80.60;;;;;;4994696;28;20931;-67
2022/07/04 02:29:59;;;;;;;3.07;1.70;;;20.70;81.00;;;;;;4994684;28;20578;-66
2022/07/04 02:32:27;;;;;;;3.37;1.50;;;20.70;81.60;;;;;;4994537;28;20450;-67
2022/07/04 02:34:54;;;;;;;2.73;1.70;;;20.70;81.80;;;;;;4995201;28;20872;-67
2022/07/04 02:37:21;;;;;;;2.87;1.90;;;20.70;82.10;;;;;;4994474;28;20467;-67
2022/07/04 02:39:49;;;;;;;2.60;1.70;;;20.70;82.10;;;;;;4995108;28;20509;-67
2022/07/04 02:42:17;;;;;;;2.73;1.57;;;20.70;82.50;;;;;;4994689;28;20436;-67
2022/07/04 02:44:47;;;;;;;3.90;1.50;;;20.70;82.40;;;;;;4994994;28;20444;-68
2022/07/04 02:47:20;;;;;;;3.20;1.23;;;20.60;82.70;;;;;;4994764;28;20478;-67
2022/07/04 02:49:48;;;;;;;2.53;1.63;;;20.50;82.70;;;;;;4994632;28;20844;-67
2022/07/04 02:52:15;;;;;;;2.47;1.40;;;20.50;83.00;;;;;;4994783;28;20444;-68
2022/07/04 02:54:42;;;;;;;4.40;2.20;;;20.40;83.30;;;;;;4994602;28;20479;-67
2022/07/04 02:57:10;;;;;;;9.40;2.20;;;20.30;83.70;;;;;;4994535;28;20778;-67
2022/07/04 02:59:44;;;;;;;5.13;1.93;;;20.30;84.40;;;;;;4994121;28;20821;-67
2022/07/04 03:02:11;;;;;;;7.13;2.17;;;20.30;85.10;;;;;;4994369;28;20439;-67
2022/07/04 03:04:42;;;;;;;3.10;1.90;;;20.30;85.20;;;;;;4994885;28;20795;-67
2022/07/04 03:07:12;;;;;;;2.70;1.90;;;20.20;85.50;;;;;;4994079;28;20510;-67
2022/07/04 03:09:44;;;;;;;3.03;1.90;;;20.20;86.80;;;;;;4994562;28;20519;-67
2022/07/04 03:12:14;;;;;;;2.43;1.77;;;20.20;86.60;;;;;;4993970;28;20444;-67
2022/07/04 03:14:48;;;;;;;3.80;1.97;;;20.10;86.80;;;;;;4994631;28;20445;-67
2022/07/04 03:17:15;;;;;;;7.30;1.70;;;20.00;87.50;;;;;;4994234;28;20521;-66
2022/07/04 03:19:42;;;;;;;4.93;1.70;;;20.00;87.20;;;;;;4994317;28;20494;-66
2022/07/04 03:22:10;;;;;;;4.77;1.87;;;20.00;87.10;;;;;;4994406;28;20494;-67
2022/07/04 03:24:37;;;;;;;3.23;2.13;;;19.90;87.20;;;;;;4994319;28;20440;-67
2022/07/04 03:27:05;;;;;;;2.73;1.70;;;19.80;88.10;;;;;;4993704;28;20448;-67
2022/07/04 03:29:32;;;;;;;3.20;2.17;;;19.80;88.90;;;;;;4993913;28;20911;-67
2022/07/04 03:32:01;;;;;;;5.03;2.30;;;19.80;89.00;;;;;;4993599;28;20474;-67
2022/07/04 03:34:28;;;;;;;2.93;1.63;;;19.70;89.00;;;;;;4994257;28;20448;-67
2022/07/04 03:36:55;;;;;;;2.60;1.73;;;19.70;89.30;;;;;;4993505;28;20530;-67
2022/07/04 03:39:22;;;;;;;2.20;1.53;;;19.70;89.40;;;;;;4993942;28;20494;-67
2022/07/04 03:41:50;;;;;;;3.87;2.00;;;19.80;89.60;;;;;;4993386;28;20943;-67
2022/07/04 03:44:17;;;;;;;2.40;1.60;;;19.80;89.50;;;;;;4993665;28;20502;-67
2022/07/04 03:46:45;;;;;;;2.90;1.83;;;19.80;89.20;;;;;;4993081;28;20494;-67
2022/07/04 03:49:20;;;;;;;2.60;1.60;;;19.80;89.20;;;;;;4993116;28;20439;-69
2022/07/04 03:51:48;;;;;;;3.13;1.90;;;19.80;89.70;;;;;;4992784;28;20439;-67
2022/07/04 03:54:19;;;;;;;3.53;2.30;;;19.80;89.50;;;;;;4992517;28;20445;-67
2022/07/04 03:56:46;;;;;;;3.60;2.80;;;19.80;89.60;;;;;;4993270;28;20511;-67
2022/07/04 03:59:14;;;;;;;3.90;1.97;;;19.70;90.00;;;;;;4993475;28;20471;-67
2022/07/04 04:01:44;;;;;;;2.90;2.03;;;19.60;90.10;;;;;;4992684;28;20785;-66
2022/07/04 04:07:03;;;;;;;3.13;2.27;;;19.70;90.20;;;;;;4993423;28;20530;-67
2022/07/04 04:09:32;;;;;;;3.00;2.20;;;19.70;90.30;;;;;;4993481;28;20490;-67
2022/07/04 04:12:00;;;;;;;3.73;1.80;;;19.80;90.20;;;;;;4992011;28;20930;-67
2022/07/04 04:14:27;;;;;;;2.30;1.60;;;19.90;90.20;;;;;;4993696;28;20443;-67
2022/07/04 04:16:54;;;;;;;2.50;1.73;;;19.90;89.90;;;;;;4992958;28;20470;-67
2022/07/04 04:19:23;;;;;;;6.23;2.03;;;19.90;89.80;;;;;;4993246;28;20475;-66
2022/07/04 04:21:50;;;;;;;4.20;2.57;;;19.80;90.40;;;;;;4992603;28;20475;-70
2022/07/04 04:24:19;;;;;;;3.80;2.50;;;19.90;90.20;;;;;;4993268;28;20483;-67
2022/07/04 04:26:48;;;;;;;4.37;2.17;;;19.90;90.30;;;;;;4993072;28;20526;-67
2022/07/04 04:29:16;;;;;;;3.43;1.93;;;19.80;90.50;;;;;;4993344;28;20480;-68
2022/07/04 04:31:45;;;;;;;5.03;3.37;;;19.90;90.20;;;;;;4992913;28;20490;-67
2022/07/04 04:34:14;;;;;;;4.60;2.47;;;19.90;90.00;;;;;;4993277;28;20447;-67
2022/07/04 04:36:41;;;;;;;3.03;2.00;;;19.90;90.10;;;;;;4993043;28;20440;-67
2022/07/04 04:39:11;;;;;;;4.10;2.43;;;19.90;90.00;;;;;;4992608;28;20455;-67
2022/07/04 04:41:40;;;;;;;4.20;2.87;;;20.00;90.00;;;;;;4992716;28;20448;-67
2022/07/04 04:44:12;;;;;;;4.47;2.47;;;20.00;90.00;;;;;;4993100;28;20431;-67
2022/07/04 04:46:39;;;;;;;4.67;2.70;;;20.10;90.50;;;;;;4992419;28;20440;-67
2022/07/04 04:49:12;;;;;;;4.90;3.00;;;20.10;90.10;;;;;;4993099;28;20447;-67
2022/07/04 04:51:40;;;;;;;3.40;2.13;;;20.10;89.60;;;;;;4992346;28;20489;-67
2022/07/04 04:54:07;;;;;;;2.33;1.70;;;20.10;88.90;;;;;;4989889;28;20530;-67
2022/07/04 04:56:39;;;;;;;4.40;2.80;;;20.10;88.60;;;;;;4990699;28;20938;-67
2022/07/04 04:59:10;;;;;;;3.00;1.97;;;20.20;89.10;;;;;;4990966;28;20458;-67
2022/07/04 05:01:37;;;;;;;2.30;1.70;;;20.20;89.90;;;;;;4989759;28;20432;-70
2022/07/04 05:04:06;;;;;;;3.57;2.40;;;20.30;90.30;;;;;;4991202;28;20494;-67
2022/07/04 05:06:33;;;;;;;5.30;1.90;;;20.40;90.80;;;;;;4990759;28;20511;-67
2022/07/04 05:09:01;;;;;;;4.57;1.90;;;20.40;91.30;;;;;;4990220;28;20526;-67
2022/07/04 05:11:28;;;;;;;5.13;2.00;;;20.40;91.40;;;;;;4988572;28;20613;-67
2022/07/04 05:14:01;;;;;;;3.30;2.20;;;20.40;91.30;;;;;;4991085;28;20997;-67
2022/07/04 05:16:30;;;;;;;4.17;2.27;;;20.40;91.20;;;;;;4990574;28;20439;-74
2022/07/04 05:19:06;;;;;;;3.73;1.60;;;20.50;91.20;;;;;;4990110;28;20454;-71
2022/07/04 05:21:36;;;;;;;3.33;2.13;;;20.60;91.30;;;;;;4991187;28;20504;-67
2022/07/04 05:24:04;;;;;;;4.63;2.10;;;20.60;91.50;;;;;;4992718;28;20930;-68
2022/07/04 05:26:31;;;;;;;5.03;1.90;;;20.60;92.00;;;;;;4991182;28;20996;-67
2022/07/04 05:28:59;;;;;;;5.20;2.43;;;20.50;91.90;;;;;;4994275;28;20554;-67
2022/07/04 05:31:26;;;;;;;5.90;2.37;;;20.60;91.80;;;;;;4994756;28;20525;-67
2022/07/04 05:33:55;;;;;;;3.47;1.67;;;20.60;91.60;;;;;;4994170;28;20498;-72
2022/07/04 05:36:22;;;;;;;3.10;2.00;;;20.60;91.60;;;;;;4991429;28;20867;-67
2022/07/04 05:38:50;;;;;;;3.63;1.70;;;20.60;91.20;;;;;;4994725;28;20505;-67
2022/07/04 05:41:17;;;;;;;3.43;1.80;;;20.70;91.00;;;;;;4994159;28;20451;-67
2022/07/04 05:43:44;;;;;;;3.10;1.93;;;20.80;90.50;;;;;;4994406;28;20489;-67
2022/07/04 05:46:12;;;;;;;6.17;3.00;;;20.80;90.10;;;;;;4993461;28;20475;-67
2022/07/04 05:48:39;;;;;;;3.17;1.73;;;20.90;89.80;;;;;;4994907;28;20455;-67
2022/07/04 05:51:08;;;;;;;3.03;1.90;;;20.90;89.00;;;;;;4993396;28;20486;-68
2022/07/04 05:53:35;;;;;;;3.30;1.87;;;21.00;89.50;;;;;;4989685;28;20431;-67
2022/07/04 05:56:02;;;;;;;2.30;1.43;;;21.00;88.50;;;;;;4986330;28;20443;-68
2022/07/04 05:58:30;;;;;;;3.50;1.57;;;21.00;88.70;;;;;;4989434;28;20546;-67
2022/07/04 06:00:57;;;;;;;3.33;1.80;;;21.10;89.30;;;;;;4994196;28;20435;-68
2022/07/04 06:03:24;;;;;;;6.10;2.40;;;21.10;90.00;;;;;;4989921;28;20933;-67
2022/07/04 06:05:53;;;;;;;4.77;1.60;;;21.10;89.90;;;;;;4994098;28;20451;-69
2022/07/04 06:08:21;;;;;;;2.17;1.17;;;21.10;89.80;;;;;;4993821;28;20539;-67
2022/07/04 06:10:48;;;;;;;3.00;1.30;;;21.10;89.70;;;;;;4993699;28;20511;-67
2022/07/04 06:13:19;;;;;;;2.70;1.50;;;21.20;89.70;;;;;;4993837;28;20861;-67
2022/07/04 06:15:46;;;;;;;2.60;1.30;;;21.20;90.00;;;;;;4994126;28;20439;-68
2022/07/04 06:18:14;;;;;;;3.80;1.43;;;21.30;90.10;;;;;;4992561;28;20451;-70
2022/07/04 06:20:42;;;;;;;4.27;2.07;;;21.40;89.50;;;;;;4990279;28;20432;-67
2022/07/04 06:23:09;;;;;;;4.20;1.30;;;21.50;88.40;;;;;;4992917;28;20813;-67
2022/07/04 06:25:38;;;;;;;2.27;1.47;;;21.60;87.20;;;;;;4993932;28;20561;-67
2022/07/04 06:28:05;;;;;;;2.53;1.30;;;21.60;86.70;;;;;;4991680;28;20850;-67
2022/07/04 06:30:32;;;;;;;2.20;1.50;;;21.70;86.40;;;;;;4993540;28;20499;-67
2022/07/04 06:33:00;;;;;;;2.23;1.00;;;21.70;86.20;;;;;;4992960;28;20502;-67
2022/07/04 06:35:48;;;;;;;3.33;1.43;;;21.70;86.10;;;;;;4992530;28;20530;-67
2022/07/04 06:38:18;;;;;;;2.63;1.40;;;21.70;86.90;;;;;;4991927;28;20447;-67
2022/07/04 06:40:47;;;;;;;3.50;1.73;;;21.70;88.30;;;;;;4993629;28;20546;-67
2022/07/04 06:43:14;;;;;;;2.60;1.63;;;21.70;89.10;;;;;;4993170;28;20431;-68
2022/07/04 06:45:41;;;;;;;3.90;1.40;;;21.70;88.10;;;;;;4993571;28;20486;-67
2022/07/04 06:48:08;;;;;;;3.93;1.60;;;21.80;88.10;;;;;;4993251;28;20435;-67
2022/07/04 06:50:36;;;;;;;3.50;1.67;;;21.90;88.90;;;;;;4992860;28;20530;-68
2022/07/04 06:53:04;;;;;;;3.27;1.80;;;21.90;89.50;;;;;;4992383;28;20442;-67
2022/07/04 06:55:32;;;;;;;2.50;1.60;;;21.90;90.00;;;;;;4992909;28;20799;-67
2022/07/04 06:58:10;;;;;;;2.33;1.50;;;21.80;89.10;;;;;;4992459;28;20447;-70
2022/07/04 07:00:38;;;;;;;4.30;1.90;;;21.80;89.40;;;;;;4990704;28;20447;-67
2022/07/04 07:03:12;;;;;;;2.80;1.80;;;21.80;89.80;;;;;;4992937;28;20439;-67
2022/07/04 07:05:38;;;;;;;2.50;1.47;;;21.80;90.10;;;;;;4993384;28;20443;-67
2022/07/04 07:08:05;;;;;;;2.70;1.70;;;21.80;90.30;;;;;;4992878;28;20761;-67
2022/07/04 07:10:33;;;;;;;3.50;2.23;;;21.80;90.10;;;;;;4992605;28;20476;-67
2022/07/04 07:13:01;;;;;;;4.07;1.70;;;21.80;90.40;;;;;;4991990;28;20447;-68
2022/07/04 07:15:28;;;;;;;2.30;1.70;;;21.80;91.00;;;;;;4988976;28;20471;-67
2022/07/04 07:17:55;;;;;;;4.00;2.17;;;21.90;91.20;;;;;;4993132;28;20456;-67
2022/07/04 07:20:22;;;;;;;4.43;1.87;;;21.90;90.90;;;;;;4992371;28;20526;-67
2022/07/04 07:22:49;;;;;;;3.80;1.93;;;21.90;90.60;;;;;;4992564;28;21010;-67
2022/07/04 07:25:16;;;;;;;3.50;1.67;;;21.90;90.70;;;;;;4993207;28;20534;-67
2022/07/04 07:27:44;;;;;;;4.20;2.20;;;21.90;90.30;;;;;;4992335;28;20535;-68
2022/07/04 07:30:13;;;;;;;3.53;2.17;;;21.80;90.50;;;;;;4992682;28;20550;-66
2022/07/04 07:32:40;;;;;;;3.97;2.30;;;21.90;91.20;;;;;;4991968;28;20444;-69
2022/07/04 07:35:07;;;;;;;3.93;2.30;;;21.90;91.50;;;;;;4988951;28;20531;-67
2022/07/04 07:37:34;;;;;;;3.33;1.73;;;21.90;91.80;;;;;;4992496;28;20845;-67
2022/07/04 07:40:02;;;;;;;7.00;1.93;;;21.90;91.80;;;;;;4992724;28;20455;-67
2022/07/04 07:42:29;;;;;;;3.40;2.30;;;21.90;91.90;;;;;;4992376;28;20439;-69
2022/07/04 07:44:56;;;;;;;3.27;2.20;;;21.90;92.20;;;;;;4992708;28;20436;-67
2022/07/04 07:47:25;;;;;;;3.20;1.83;;;21.90;92.20;;;;;;4992397;28;20527;-67
2022/07/04 07:49:52;;;;;;;3.20;1.60;;;21.90;92.80;;;;;;4992872;28;20518;-68
2022/07/04 07:52:18;;;;;;;2.80;2.00;;;21.90;92.30;;;;;;4992651;28;20559;-68
2022/07/04 07:54:45;;;;;;;2.93;2.00;;;22.00;92.30;;;;;;4992010;28;20555;-67
2022/07/04 07:57:12;;;;;;;4.60;2.90;;;22.10;92.80;;;;;;4989293;28;20531;-68
2022/07/04 07:59:40;;;;;;;5.40;2.13;;;22.20;93.30;;;;;;4992126;28;20444;-67
2022/07/04 08:02:08;;;;;;;6.07;1.77;;;22.20;93.70;;;;;;4996148;28;20487;-69
2022/07/04 08:04:35;;;;;;;3.43;1.83;;;22.30;93.50;;;;;;4998007;28;20538;-67
2022/07/04 08:07:04;;;;;;;2.80;1.80;;;22.30;93.10;;;;;;4989338;28;20453;-67
2022/07/04 08:09:31;;;;;;;4.03;2.53;;;22.40;92.70;;;;;;4990357;28;20524;-68
2022/07/04 08:11:58;;;;;;;3.83;2.17;;;22.60;92.90;;;;;;4990354;28;20483;-69
2022/07/04 08:14:25;;;;;;;4.37;1.67;;;22.70;92.70;;;;;;4989279;28;20526;-67
2022/07/04 08:16:52;;;;;;;3.23;2.07;;;23.00;92.60;;;;;;4996999;28;20507;-67
2022/07/04 08:19:20;;;;;;;4.57;2.47;;;23.20;92.40;;;;;;4991669;28;21045;-68
2022/07/04 08:21:48;;;;;;;2.93;1.77;;;23.40;92.10;;;;;;4985972;28;20537;-69
2022/07/04 08:24:16;;;;;;;3.10;1.87;;;23.50;91.30;;;;;;4990426;28;20521;-68
2022/07/04 08:26:42;;;;;;;6.70;2.10;;;23.70;90.70;;;;;;4992466;28;20492;-68
2022/07/04 08:29:10;;;;;;;3.13;1.80;;;23.80;90.70;;;;;;4989787;28;20469;-67
2022/07/04 08:31:37;;;;;;;3.90;1.73;;;24.00;89.70;;;;;;4989716;28;20826;-67
2022/07/04 08:34:04;;;;;;;2.90;2.03;;;24.40;90.00;;;;;;4989629;28;20896;-68
2022/07/04 08:36:31;;;;;;;4.33;2.07;;;24.60;86.50;;;;;;4992820;28;20506;-69
2022/07/04 08:38:59;;;;;;;3.33;2.10;;;25.10;87.80;;;;;;4989520;28;20522;-67
2022/07/04 08:41:29;;;;;;;3.93;2.13;;;25.40;84.30;;;;;;4992268;28;20497;-67
2022/07/04 08:43:57;;;;;;;2.50;1.57;;;25.70;81.80;;;;;;4990746;28;20443;-68
2022/07/04 08:46:27;;;;;;;2.70;1.60;;;25.90;81.60;;;;;;4990055;28;20479;-68
2022/07/04 08:48:57;;;;;;;3.90;1.93;;;26.10;79.30;;;;;;4988643;28;20497;-68
2022/07/04 08:51:41;;;;;;;3.30;1.93;;;26.40;80.40;;;;;;4990312;28;20570;-67
2022/07/04 08:59:36;;;;;;;3.80;1.60;;;27.10;75.60;;;;;;4998018;28;20439;-68
2022/07/04 09:02:04;;;;;;;2.50;1.80;;;27.20;74.70;;;;;;4996301;28;20534;-68
2022/07/04 09:04:31;;;;;;;3.70;2.37;;;27.50;72.40;;;;;;5000494;28;20447;-67
2022/07/04 09:06:59;;;;;;;2.50;1.50;;;27.60;70.90;;;;;;5001691;28;20453;-67
2022/07/04 09:09:28;;;;;;;3.90;1.80;;;27.60;72.60;;;;;;4995169;28;20435;-67
2022/07/04 09:11:55;;;;;;;3.07;1.83;;;27.60;70.10;;;;;;4997390;28;20580;-69
2022/07/04 09:14:24;;;;;;;3.87;2.00;;;27.50;70.00;;;;;;4996689;28;20496;-67
2022/07/04 09:16:53;;;;;;;2.70;1.70;;;27.40;68.10;;;;;;4995279;28;20491;-67
2022/07/04 09:19:22;;;;;;;3.13;2.00;;;27.00;70.10;;;;;;4994101;28;20444;-67
2022/07/04 09:21:50;;;;;;;3.20;2.10;;;26.90;69.80;;;;;;4997378;28;20869;-68
2022/07/04 09:24:17;;;;;;;2.67;1.87;;;26.80;70.50;;;;;;4997684;28;20474;-67
2022/07/04 09:26:47;;;;;;;2.87;2.03;;;26.70;69.40;;;;;;4995438;28;20455;-68
2022/07/04 09:29:15;;;;;;;3.70;2.10;;;26.60;69.50;;;;;;5002086;28;20465;-67
2022/07/04 09:31:42;;;;;;;4.20;2.00;;;26.50;69.10;;;;;;4997801;28;20993;-67
2022/07/04 09:34:10;;;;;;;3.03;1.70;;;26.30;70.60;;;;;;4997701;28;20922;-67
2022/07/04 09:36:41;;;;;;;3.00;1.80;;;26.30;72.00;;;;;;4994503;28;20486;-68
2022/07/04 09:39:14;;;;;;;2.77;2.00;;;26.20;72.40;;;;;;4998407;28;21025;-68
2022/07/04 09:41:56;;;;;;;3.00;1.90;;;26.20;72.20;;;;;;5002949;28;20447;-67
2022/07/04 09:44:25;;;;;;;2.57;1.67;;;26.20;72.60;;;;;;4995985;28;20434;-68
2022/07/04 09:46:52;;;;;;;3.67;2.00;;;26.30;73.20;;;;;;4993158;28;20455;-67
2022/07/04 09:49:20;;;;;;;2.50;1.87;;;26.40;73.90;;;;;;4995492;28;20443;-67
2022/07/04 09:51:48;;;;;;;3.73;2.10;;;26.40;72.50;;;;;;4994396;28;20542;-70
2022/07/04 09:54:22;;;;;;;5.87;1.83;;;26.40;72.40;;;;;;4994462;28;20431;-68
2022/07/04 09:56:51;;;;;;;3.00;1.80;;;26.40;71.90;;;;;;4996448;28;20545;-67
2022/07/04 09:59:20;;;;;;;3.00;1.87;;;26.40;72.70;;;;;;4994804;28;20910;-70
2022/07/04 10:01:47;;;;;;;3.10;1.80;;;26.30;72.40;;;;;;4996071;28;20934;-67
2022/07/04 10:04:15;;;;;;;3.67;1.70;;;26.30;73.10;;;;;;5001267;28;20487;-67
2022/07/04 10:06:44;;;;;;;2.47;1.80;;;26.20;72.20;;;;;;4995816;28;20451;-69
2022/07/04 10:09:13;;;;;;;2.40;1.70;;;26.00;71.50;;;;;;4994394;28;20452;-67
2022/07/04 10:11:41;;;;;;;3.40;2.33;;;25.70;71.60;;;;;;4995459;28;20475;-67
2022/07/04 10:14:10;;;;;;;3.37;1.77;;;25.60;72.90;;;;;;4994417;28;20469;-67
2022/07/04 10:16:40;;;;;;;2.50;2.00;;;25.50;73.50;;;;;;4991814;28;20463;-67
2022/07/04 10:19:08;;;;;;;3.90;2.30;;;25.40;73.60;;;;;;4991573;28;20452;-68
2022/07/04 10:21:35;;;;;;;3.03;1.73;;;25.40;73.90;;;;;;4992118;28;20444;-67
2022/07/04 10:24:04;;;;;;;3.20;2.10;;;25.40;74.20;;;;;;4991744;28;20530;-69
2022/07/04 10:26:32;;;;;;;4.27;2.10;;;25.40;74.50;;;;;;4988993;28;20506;-67
2022/07/04 10:28:59;;;;;;;3.13;1.87;;;25.40;73.70;;;;;;4990578;28;20484;-67
2022/07/04 10:31:29;;;;;;;5.30;2.90;;;25.50;73.40;;;;;;4991309;28;20444;-67
2022/07/04 10:34:00;;;;;;;4.13;1.70;;;25.60;75.00;;;;;;4991605;28;20447;-69
2022/07/04 10:36:30;;;;;;;3.13;1.87;;;25.80;75.30;;;;;;4991391;28;20845;-67
2022/07/04 10:38:59;;;;;;;3.53;1.80;;;25.90;75.00;;;;;;4991198;28;20946;-67
2022/07/04 10:41:29;;;;;;;3.57;2.70;;;26.10;71.90;;;;;;4991130;28;20792;-67
2022/07/04 10:44:02;;;;;;;2.90;1.67;;;26.30;71.60;;;;;;4991972;28;20439;-68
2022/07/04 10:46:34;;;;;;;3.03;1.83;;;26.50;70.80;;;;;;4991960;28;20451;-67
2022/07/04 10:49:06;;;;;;;3.47;1.63;;;26.60;67.90;;;;;;4989331;28;20541;-67
2022/07/04 10:51:37;;;;;;;2.90;2.00;;;26.80;65.40;;;;;;4991455;28;20448;-67
2022/07/04 10:54:07;;;;;;;3.33;1.93;;;27.00;65.40;;;;;;4991221;28;20444;-68
2022/07/04 10:56:46;;;;;;;2.70;1.57;;;27.10;64.80;;;;;;4991473;28;20945;-67
2022/07/04 10:59:16;;;;;;;4.43;1.80;;;27.20;65.70;;;;;;4990882;28;20545;-68
2022/07/04 11:01:52;;;;;;;2.50;1.73;;;27.30;65.00;;;;;;4991951;28;20446;-67
2022/07/04 11:04:51;;;;;;;3.47;1.83;;;27.50;63.10;;;;;;4986707;28;20440;-67
2022/07/04 11:07:20;;;;;;;3.40;2.00;;;27.70;63.50;;;;;;4990588;28;20949;-69
2022/07/04 11:09:48;;;;;;;3.13;1.87;;;27.70;60.70;;;;;;4988577;28;20475;-68
2022/07/04 11:12:15;;;;;;;3.70;1.93;;;27.80;62.40;;;;;;4993237;28;20545;-69
2022/07/04 11:14:44;;;;;;;3.90;2.17;;;27.90;60.10;;;;;;4990432;28;20526;-67
2022/07/04 11:17:12;;;;;;;3.30;1.97;;;28.00;61.60;;;;;;4990547;28;20531;-68
2022/07/04 11:19:40;;;;;;;3.00;1.70;;;28.20;59.20;;;;;;4990406;28;21045;-67
2022/07/04 11:22:11;;;;;;;2.90;1.83;;;28.40;59.70;;;;;;4991308;28;20484;-68
2022/07/04 11:24:39;;;;;;;3.57;1.93;;;28.50;61.00;;;;;;4990436;28;20514;-70
2022/07/04 11:27:09;;;;;;;3.77;1.70;;;28.80;61.90;;;;;;4989172;28;20930;-68
2022/07/04 11:29:36;;;;;;;3.20;2.37;;;29.10;63.30;;;;;;4994816;28;20507;-68
2022/07/04 11:32:07;;;;;;;3.00;1.90;;;29.30;58.10;;;;;;4987887;28;20845;-67
2022/07/04 11:34:40;;;;;;;3.43;1.90;;;29.40;58.20;;;;;;4986624;28;20447;-67
2022/07/04 11:37:09;;;;;;;2.20;1.67;;;29.50;57.40;;;;;;4993583;28;20457;-68
2022/07/04 11:39:36;;;;;;;2.20;1.60;;;29.60;57.40;;;;;;4986830;28;20450;-68
2022/07/04 11:45:04;;;;;;;3.70;2.00;;;29.60;55.50;;;;;;4999808;28;20441;-68
2022/07/04 11:47:36;;;;;;;2.37;1.30;;;29.60;55.90;;;;;;4986909;28;20527;-67
2022/07/04 11:50:06;;;;;;;5.43;2.00;;;29.70;55.60;;;;;;4999736;28;20475;-68
2022/07/04 11:52:42;;;;;;;4.70;1.87;;;29.80;55.10;;;;;;4991161;28;20479;-68
2022/07/04 11:55:11;;;;;;;2.70;1.60;;;30.00;54.80;;;;;;4993259;28;20451;-67
2022/07/04 11:57:39;;;;;;;3.43;1.90;;;30.10;55.00;;;;;;4990695;28;20791;-68
2022/07/04 12:00:09;;;;;;;4.10;1.70;;;30.10;54.50;;;;;;4996586;28;20488;-69
2022/07/04 12:02:37;;;;;;;2.60;1.80;;;30.30;54.10;;;;;;4994268;28;20547;-67
2022/07/04 12:05:06;;;;;;;2.63;1.40;;;30.20;49.50;;;;;;5000624;28;20467;-72
2022/07/04 12:07:36;;;;;;;3.60;1.90;;;30.20;48.80;;;;;;4993562;28;20443;-67
2022/07/04 12:10:14;;;;;;;6.03;2.00;;;30.20;49.00;;;;;;4990155;28;20451;-67
2022/07/04 12:12:54;;;;;;;2.40;1.67;;;30.20;49.90;;;;;;4991396;28;20953;-67
2022/07/04 12:15:22;;;;;;;5.07;1.90;;;30.20;51.10;;;;;;4991581;28;20513;-68
2022/07/04 12:17:53;;;;;;;3.33;1.70;;;30.20;50.90;;;;;;4995827;28;20795;-68
2022/07/04 12:20:21;;;;;;;2.40;1.73;;;30.20;50.20;;;;;;4990758;28;20455;-68
2022/07/04 12:22:54;;;;;;;2.77;2.03;;;30.20;51.00;;;;;;4990692;28;20848;-67
2022/07/04 12:25:26;;;;;;;3.93;1.70;;;30.20;50.10;;;;;;4991593;28;20462;-67
2022/07/04 12:27:59;;;;;;;3.20;2.10;;;30.20;51.20;;;;;;4992760;28;20535;-67
2022/07/04 12:30:28;;;;;;;3.10;1.83;;;30.10;51.20;;;;;;4996339;28;20466;-69
2022/07/04 12:32:59;;;;;;;3.43;1.60;;;30.20;50.90;;;;;;4991872;28;20486;-69
2022/07/04 12:35:44;;;;;;;3.97;1.93;;;30.20;50.60;;;;;;4988741;28;20494;-74
2022/07/04 12:38:20;;;;;;;2.60;1.73;;;30.20;50.80;;;;;;4987276;28;20455;-67
2022/07/04 12:41:00;;;;;;;4.10;1.90;;;30.20;50.20;;;;;;4990960;28;20456;-68
2022/07/04 12:43:44;;;;;;;2.50;1.70;;;30.20;52.10;;;;;;4993991;28;20529;-67
2022/07/04 12:46:13;;;;;;;4.40;2.27;;;30.20;50.10;;;;;;4994163;28;20877;-68
2022/07/04 12:48:41;;;;;;;3.43;1.73;;;30.20;51.00;;;;;;4993966;28;20535;-67
2022/07/04 12:51:14;;;;;;;2.63;1.73;;;30.20;50.00;;;;;;4999617;28;20515;-69
2022/07/04 12:53:44;;;;;;;3.60;2.43;;;30.10;49.80;;;;;;4991025;28;20518;-67
2022/07/04 12:56:27;;;;;;;2.90;1.90;;;30.00;49.90;;;;;;4991369;28;20447;-67
2022/07/04 12:58:54;;;;;;;3.50;1.80;;;30.00;50.40;;;;;;4991835;28;20854;-67
2022/07/04 13:01:21;;;;;;;2.70;1.63;;;29.90;50.90;;;;;;4995111;28;20522;-67
2022/07/04 13:03:48;;;;;;;3.97;1.90;;;30.00;51.40;;;;;;4993697;28;20542;-68
2022/07/04 13:06:15;;;;;;;6.63;1.60;;;30.00;50.90;;;;;;4987861;28;20475;-67
2022/07/04 13:08:44;;;;;;;3.77;1.67;;;30.00;51.10;;;;;;4991202;28;20522;-67
2022/07/04 13:13:56;;;;;;;3.03;1.80;;;29.70;49.90;;;;;;4990443;28;20521;-70
2022/07/04 13:16:23;;;;;;;2.87;1.70;;;29.60;49.20;;;;;;4992397;28;20447;-67